sensor_id;sensor_type;location;lat;lon;timestamp;P1;durP1;ratioP1;P2;durP2;ratioP2
9117;SDS011;4594;50.994;7.126;2022-08-19T00:01:30;6.70;;;6.10;;
9117;SDS011;4594;50.994;7.126;2022-08-19T00:04:00;6.50;;;5.90;;
9117;SDS011;4594;50.994;7.126;2022-08-19T00:06:30;6.37;;;5.73;;
9117;SDS011;4594;50.994;7.126;2022-08-19T00:08:56;6.60;;;5.90;;
9117;SDS011;4594;50.994;7.126;2022-08-19T00:11:25;6.60;;;5.80;;
9117;SDS011;4594;50.994;7.126;2022-08-19T00:13:52;7.37;;;6.03;;
9117;SDS011;4594;50.994;7.126;2022-08-19T00:16:19;7.60;;;6.93;;
9117;SDS011;4594;50.994;7.126;2022-08-19T00:18:46;7.23;;;6.63;;
9117;SDS011;4594;50.994;7.126;2022-08-19T00:21:13;9.33;;;7.10;;
9117;SDS011;4594;50.994;7.126;2022-08-19T00:23:40;7.93;;;7.23;;
9117;SDS011;4594;50.994;7.126;2022-08-19T00:26:07;7.87;;;7.07;;
9117;SDS011;4594;50.994;7.126;2022-08-19T00:28:33;7.80;;;7.13;;
9117;SDS011;4594;50.994;7.126;2022-08-19T00:31:00;8.87;;;8.00;;
9117;SDS011;4594;50.994;7.126;2022-08-19T00:33:29;10.70;;;8.20;;
9117;SDS011;4594;50.994;7.126;2022-08-19T00:35:59;8.30;;;7.47;;
9117;SDS011;4594;50.994;7.126;2022-08-19T00:38:29;8.20;;;7.40;;
9117;SDS011;4594;50.994;7.126;2022-08-19T00:40:55;8.80;;;7.90;;
9117;SDS011;4594;50.994;7.126;2022-08-19T00:43:22;7.97;;;7.27;;
9117;SDS011;4594;50.994;7.126;2022-08-19T00:45:51;7.97;;;7.27;;
9117;SDS011;4594;50.994;7.126;2022-08-19T00:48:18;8.27;;;7.43;;
9117;SDS011;4594;50.994;7.126;2022-08-19T00:50:46;8.57;;;7.70;;
9117;SDS011;4594;50.994;7.126;2022-08-19T00:53:16;8.67;;;7.77;;
9117;SDS011;4594;50.994;7.126;2022-08-19T00:55:48;8.03;;;7.33;;
9117;SDS011;4594;50.994;7.126;2022-08-19T00:58:18;8.27;;;7.47;;
9117;SDS011;4594;50.994;7.126;2022-08-19T01:00:47;7.67;;;6.97;;
9117;SDS011;4594;50.994;7.126;2022-08-19T01:03:15;8.33;;;7.53;;
9117;SDS011;4594;50.994;7.126;2022-08-19T01:05:44;9.47;;;8.57;;
9117;SDS011;4594;50.994;7.126;2022-08-19T01:08:13;9.13;;;8.13;;
9117;SDS011;4594;50.994;7.126;2022-08-19T01:10:43;9.07;;;8.20;;
9117;SDS011;4594;50.994;7.126;2022-08-19T01:13:18;9.07;;;8.27;;
9117;SDS011;4594;50.994;7.126;2022-08-19T01:15:52;9.23;;;8.33;;
9117;SDS011;4594;50.994;7.126;2022-08-19T01:18:29;8.80;;;8.00;;
9117;SDS011;4594;50.994;7.126;2022-08-19T01:21:02;9.33;;;8.40;;
9117;SDS011;4594;50.994;7.126;2022-08-19T01:23:40;9.33;;;8.37;;
9117;SDS011;4594;50.994;7.126;2022-08-19T01:26:13;7.77;;;7.07;;
9117;SDS011;4594;50.994;7.126;2022-08-19T01:28:47;8.63;;;7.73;;
9117;SDS011;4594;50.994;7.126;2022-08-19T01:31:19;9.83;;;7.90;;
9117;SDS011;4594;50.994;7.126;2022-08-19T01:33:49;8.70;;;7.80;;
9117;SDS011;4594;50.994;7.126;2022-08-19T01:39:08;8.47;;;7.67;;
9117;SDS011;4594;50.994;7.126;2022-08-19T01:41:37;9.17;;;8.27;;
9117;SDS011;4594;50.994;7.126;2022-08-19T01:44:03;10.70;;;8.87;;
9117;SDS011;4594;50.994;7.126;2022-08-19T01:46:31;9.33;;;8.43;;
9117;SDS011;4594;50.994;7.126;2022-08-19T01:48:57;8.97;;;8.07;;
9117;SDS011;4594;50.994;7.126;2022-08-19T01:51:24;8.67;;;7.87;;
9117;SDS011;4594;50.994;7.126;2022-08-19T01:53:50;8.70;;;7.90;;
9117;SDS011;4594;50.994;7.126;2022-08-19T01:56:17;9.07;;;8.17;;
9117;SDS011;4594;50.994;7.126;2022-08-19T01:58:45;9.17;;;8.27;;
9117;SDS011;4594;50.994;7.126;2022-08-19T02:01:18;9.10;;;8.30;;
9117;SDS011;4594;50.994;7.126;2022-08-19T02:03:45;9.97;;;8.40;;
9117;SDS011;4594;50.994;7.126;2022-08-19T02:06:11;9.20;;;8.37;;
9117;SDS011;4594;50.994;7.126;2022-08-19T02:08:38;9.87;;;8.20;;
9117;SDS011;4594;50.994;7.126;2022-08-19T02:11:05;9.43;;;8.53;;
9117;SDS011;4594;50.994;7.126;2022-08-19T02:13:32;9.70;;;8.60;;
9117;SDS011;4594;50.994;7.126;2022-08-19T02:15:58;9.90;;;8.73;;
9117;SDS011;4594;50.994;7.126;2022-08-19T02:18:24;9.17;;;8.23;;
9117;SDS011;4594;50.994;7.126;2022-08-19T02:20:51;14.70;;;11.90;;
9117;SDS011;4594;50.994;7.126;2022-08-19T02:23:17;13.70;;;10.03;;
9117;SDS011;4594;50.994;7.126;2022-08-19T02:25:44;10.53;;;9.10;;
9117;SDS011;4594;50.994;7.126;2022-08-19T02:28:12;9.93;;;8.93;;
9117;SDS011;4594;50.994;7.126;2022-08-19T02:30:40;9.60;;;8.67;;
9117;SDS011;4594;50.994;7.126;2022-08-19T02:33:07;9.63;;;8.10;;
9117;SDS011;4594;50.994;7.126;2022-08-19T02:35:33;9.10;;;8.10;;
9117;SDS011;4594;50.994;7.126;2022-08-19T02:37:58;9.90;;;8.80;;
9117;SDS011;4594;50.994;7.126;2022-08-19T02:40:48;10.10;;;9.10;;
9117;SDS011;4594;50.994;7.126;2022-08-19T02:43:24;9.77;;;8.67;;
9117;SDS011;4594;50.994;7.126;2022-08-19T02:45:51;10.33;;;8.67;;
9117;SDS011;4594;50.994;7.126;2022-08-19T02:48:18;9.63;;;8.63;;
9117;SDS011;4594;50.994;7.126;2022-08-19T02:50:47;8.73;;;7.90;;
9117;SDS011;4594;50.994;7.126;2022-08-19T02:53:24;9.10;;;8.27;;
9117;SDS011;4594;50.994;7.126;2022-08-19T02:55:52;10.77;;;8.10;;
9117;SDS011;4594;50.994;7.126;2022-08-19T02:58:20;9.20;;;8.27;;
9117;SDS011;4594;50.994;7.126;2022-08-19T03:00:49;9.90;;;8.87;;
9117;SDS011;4594;50.994;7.126;2022-08-19T03:03:18;8.73;;;7.83;;
9117;SDS011;4594;50.994;7.126;2022-08-19T03:05:45;9.30;;;7.83;;
9117;SDS011;4594;50.994;7.126;2022-08-19T03:08:11;8.47;;;7.77;;
9117;SDS011;4594;50.994;7.126;2022-08-19T03:10:40;8.67;;;7.87;;
9117;SDS011;4594;50.994;7.126;2022-08-19T03:13:12;8.67;;;7.80;;
9117;SDS011;4594;50.994;7.126;2022-08-19T03:15:43;8.87;;;8.07;;
9117;SDS011;4594;50.994;7.126;2022-08-19T03:18:12;9.10;;;7.87;;
9117;SDS011;4594;50.994;7.126;2022-08-19T03:20:41;8.60;;;7.77;;
9117;SDS011;4594;50.994;7.126;2022-08-19T03:23:18;9.63;;;8.10;;
9117;SDS011;4594;50.994;7.126;2022-08-19T03:25:44;8.70;;;7.80;;
9117;SDS011;4594;50.994;7.126;2022-08-19T03:28:13;10.00;;;7.70;;
9117;SDS011;4594;50.994;7.126;2022-08-19T03:30:42;10.63;;;8.20;;
9117;SDS011;4594;50.994;7.126;2022-08-19T03:33:21;8.13;;;7.40;;
9117;SDS011;4594;50.994;7.126;2022-08-19T03:35:59;9.40;;;8.33;;
9117;SDS011;4594;50.994;7.126;2022-08-19T03:38:37;9.47;;;8.23;;
9117;SDS011;4594;50.994;7.126;2022-08-19T03:41:13;8.40;;;7.50;;
9117;SDS011;4594;50.994;7.126;2022-08-19T03:43:44;8.50;;;7.70;;
9117;SDS011;4594;50.994;7.126;2022-08-19T03:46:19;12.43;;;8.37;;
9117;SDS011;4594;50.994;7.126;2022-08-19T03:48:48;8.20;;;7.40;;
9117;SDS011;4594;50.994;7.126;2022-08-19T03:51:22;8.97;;;8.00;;
9117;SDS011;4594;50.994;7.126;2022-08-19T03:53:55;8.40;;;7.60;;
9117;SDS011;4594;50.994;7.126;2022-08-19T03:56:24;8.87;;;8.00;;
9117;SDS011;4594;50.994;7.126;2022-08-19T03:58:52;8.93;;;8.03;;
9117;SDS011;4594;50.994;7.126;2022-08-19T04:01:21;10.77;;;7.83;;
9117;SDS011;4594;50.994;7.126;2022-08-19T04:03:51;9.73;;;7.93;;
9117;SDS011;4594;50.994;7.126;2022-08-19T04:06:19;9.07;;;8.17;;
9117;SDS011;4594;50.994;7.126;2022-08-19T04:08:49;10.10;;;7.50;;
9117;SDS011;4594;50.994;7.126;2022-08-19T04:11:19;8.37;;;7.67;;
9117;SDS011;4594;50.994;7.126;2022-08-19T04:13:52;7.77;;;7.00;;
9117;SDS011;4594;50.994;7.126;2022-08-19T04:16:21;12.13;;;8.13;;
9117;SDS011;4594;50.994;7.126;2022-08-19T04:18:49;11.20;;;7.90;;
9117;SDS011;4594;50.994;7.126;2022-08-19T04:21:16;10.37;;;8.33;;
9117;SDS011;4594;50.994;7.126;2022-08-19T04:23:46;9.07;;;8.20;;
9117;SDS011;4594;50.994;7.126;2022-08-19T04:26:16;8.97;;;8.07;;
9117;SDS011;4594;50.994;7.126;2022-08-19T04:28:46;9.70;;;8.70;;
9117;SDS011;4594;50.994;7.126;2022-08-19T04:31:14;8.63;;;7.77;;
9117;SDS011;4594;50.994;7.126;2022-08-19T04:33:46;13.80;;;9.07;;
9117;SDS011;4594;50.994;7.126;2022-08-19T04:36:17;10.63;;;8.60;;
9117;SDS011;4594;50.994;7.126;2022-08-19T04:38:57;10.43;;;9.30;;
9117;SDS011;4594;50.994;7.126;2022-08-19T04:41:26;9.60;;;8.63;;
9117;SDS011;4594;50.994;7.126;2022-08-19T04:44:10;9.20;;;8.33;;
9117;SDS011;4594;50.994;7.126;2022-08-19T04:46:37;9.30;;;8.40;;
9117;SDS011;4594;50.994;7.126;2022-08-19T04:49:04;8.33;;;7.63;;
9117;SDS011;4594;50.994;7.126;2022-08-19T04:51:32;9.47;;;7.97;;
9117;SDS011;4594;50.994;7.126;2022-08-19T04:53:59;9.50;;;8.60;;
9117;SDS011;4594;50.994;7.126;2022-08-19T04:56:27;9.67;;;8.77;;
9117;SDS011;4594;50.994;7.126;2022-08-19T04:58:54;9.57;;;8.67;;
9117;SDS011;4594;50.994;7.126;2022-08-19T05:01:25;8.97;;;8.07;;
9117;SDS011;4594;50.994;7.126;2022-08-19T05:03:54;8.97;;;8.07;;
9117;SDS011;4594;50.994;7.126;2022-08-19T05:06:22;12.63;;;9.03;;
9117;SDS011;4594;50.994;7.126;2022-08-19T05:08:48;9.83;;;8.73;;
9117;SDS011;4594;50.994;7.126;2022-08-19T05:11:22;12.43;;;8.53;;
9117;SDS011;4594;50.994;7.126;2022-08-19T05:13:51;9.20;;;8.30;;
9117;SDS011;4594;50.994;7.126;2022-08-19T05:16:18;8.93;;;7.97;;
9117;SDS011;4594;50.994;7.126;2022-08-19T05:18:46;9.83;;;8.70;;
9117;SDS011;4594;50.994;7.126;2022-08-19T05:21:31;9.67;;;8.60;;
9117;SDS011;4594;50.994;7.126;2022-08-19T05:24:17;11.57;;;9.50;;
9117;SDS011;4594;50.994;7.126;2022-08-19T05:26:46;9.27;;;8.37;;
9117;SDS011;4594;50.994;7.126;2022-08-19T05:29:17;9.83;;;8.80;;
9117;SDS011;4594;50.994;7.126;2022-08-19T05:31:46;8.47;;;7.67;;
9117;SDS011;4594;50.994;7.126;2022-08-19T05:34:17;10.37;;;9.03;;
9117;SDS011;4594;50.994;7.126;2022-08-19T05:36:46;10.50;;;8.83;;
9117;SDS011;4594;50.994;7.126;2022-08-19T05:39:16;10.60;;;9.53;;
9117;SDS011;4594;50.994;7.126;2022-08-19T05:41:46;10.03;;;8.43;;
9117;SDS011;4594;50.994;7.126;2022-08-19T05:44:21;9.57;;;8.77;;
9117;SDS011;4594;50.994;7.126;2022-08-19T05:46:56;11.07;;;8.63;;
9117;SDS011;4594;50.994;7.126;2022-08-19T05:49:23;10.07;;;9.07;;
9117;SDS011;4594;50.994;7.126;2022-08-19T05:51:50;9.03;;;8.13;;
9117;SDS011;4594;50.994;7.126;2022-08-19T05:54:16;13.17;;;8.77;;
9117;SDS011;4594;50.994;7.126;2022-08-19T05:56:44;17.93;;;9.53;;
9117;SDS011;4594;50.994;7.126;2022-08-19T05:59:12;12.00;;;9.47;;
9117;SDS011;4594;50.994;7.126;2022-08-19T06:01:41;14.67;;;10.23;;
9117;SDS011;4594;50.994;7.126;2022-08-19T06:04:10;14.23;;;9.97;;
9117;SDS011;4594;50.994;7.126;2022-08-19T06:06:38;13.13;;;11.43;;
9117;SDS011;4594;50.994;7.126;2022-08-19T06:09:06;16.27;;;12.10;;
9117;SDS011;4594;50.994;7.126;2022-08-19T06:14:06;17.77;;;12.90;;
9117;SDS011;4594;50.994;7.126;2022-08-19T06:16:36;14.53;;;11.53;;
9117;SDS011;4594;50.994;7.126;2022-08-19T06:19:06;16.20;;;13.33;;
9117;SDS011;4594;50.994;7.126;2022-08-19T06:21:43;20.53;;;14.57;;
9117;SDS011;4594;50.994;7.126;2022-08-19T06:24:14;16.90;;;13.77;;
9117;SDS011;4594;50.994;7.126;2022-08-19T06:26:48;18.40;;;13.20;;
9117;SDS011;4594;50.994;7.126;2022-08-19T06:29:17;24.63;;;14.90;;
9117;SDS011;4594;50.994;7.126;2022-08-19T06:31:46;19.73;;;14.83;;
9117;SDS011;4594;50.994;7.126;2022-08-19T06:34:15;21.33;;;14.90;;
9117;SDS011;4594;50.994;7.126;2022-08-19T06:36:43;23.43;;;15.80;;
9117;SDS011;4594;50.994;7.126;2022-08-19T06:39:17;19.20;;;15.33;;
9117;SDS011;4594;50.994;7.126;2022-08-19T06:41:51;20.77;;;15.73;;
9117;SDS011;4594;50.994;7.126;2022-08-19T06:44:21;23.20;;;16.00;;
9117;SDS011;4594;50.994;7.126;2022-08-19T06:46:50;28.00;;;17.10;;
9117;SDS011;4594;50.994;7.126;2022-08-19T06:49:17;24.60;;;18.20;;
9117;SDS011;4594;50.994;7.126;2022-08-19T06:51:45;25.23;;;16.70;;
9117;SDS011;4594;50.994;7.126;2022-08-19T06:54:13;24.57;;;17.17;;
9117;SDS011;4594;50.994;7.126;2022-08-19T06:56:40;23.87;;;16.90;;
9117;SDS011;4594;50.994;7.126;2022-08-19T06:59:07;23.33;;;15.10;;
9117;SDS011;4594;50.994;7.126;2022-08-19T07:01:46;23.37;;;15.50;;
9117;SDS011;4594;50.994;7.126;2022-08-19T07:04:17;27.70;;;15.83;;
9117;SDS011;4594;50.994;7.126;2022-08-19T07:06:59;27.23;;;17.03;;
9117;SDS011;4594;50.994;7.126;2022-08-19T07:09:38;18.27;;;14.27;;
9117;SDS011;4594;50.994;7.126;2022-08-19T07:12:09;23.73;;;15.80;;
9117;SDS011;4594;50.994;7.126;2022-08-19T07:14:39;25.40;;;15.33;;
9117;SDS011;4594;50.994;7.126;2022-08-19T07:17:06;20.23;;;15.37;;
9117;SDS011;4594;50.994;7.126;2022-08-19T07:19:35;17.47;;;13.87;;
9117;SDS011;4594;50.994;7.126;2022-08-19T07:22:04;20.43;;;14.53;;
9117;SDS011;4594;50.994;7.126;2022-08-19T07:24:32;18.83;;;13.40;;
9117;SDS011;4594;50.994;7.126;2022-08-19T07:27:00;21.33;;;14.20;;
9117;SDS011;4594;50.994;7.126;2022-08-19T07:29:30;16.60;;;13.40;;
9117;SDS011;4594;50.994;7.126;2022-08-19T07:31:58;16.50;;;13.33;;
9117;SDS011;4594;50.994;7.126;2022-08-19T07:34:27;21.40;;;12.80;;
9117;SDS011;4594;50.994;7.126;2022-08-19T07:36:55;21.30;;;13.17;;
9117;SDS011;4594;50.994;7.126;2022-08-19T07:39:28;15.53;;;13.10;;
9117;SDS011;4594;50.994;7.126;2022-08-19T07:41:58;16.90;;;13.00;;
9117;SDS011;4594;50.994;7.126;2022-08-19T07:44:28;16.37;;;11.77;;
9117;SDS011;4594;50.994;7.126;2022-08-19T07:46:55;18.30;;;11.50;;
9117;SDS011;4594;50.994;7.126;2022-08-19T07:49:22;13.33;;;10.43;;
9117;SDS011;4594;50.994;7.126;2022-08-19T07:51:52;17.80;;;10.60;;
9117;SDS011;4594;50.994;7.126;2022-08-19T07:54:31;12.37;;;9.67;;
9117;SDS011;4594;50.994;7.126;2022-08-19T07:57:00;11.80;;;9.63;;
9117;SDS011;4594;50.994;7.126;2022-08-19T07:59:27;16.13;;;9.30;;
9117;SDS011;4594;50.994;7.126;2022-08-19T08:01:53;10.73;;;8.30;;
9117;SDS011;4594;50.994;7.126;2022-08-19T08:04:20;13.47;;;8.20;;
9117;SDS011;4594;50.994;7.126;2022-08-19T08:07:06;10.50;;;8.07;;
9117;SDS011;4594;50.994;7.126;2022-08-19T08:09:52;8.90;;;7.70;;
9117;SDS011;4594;50.994;7.126;2022-08-19T08:12:19;17.07;;;8.00;;
9117;SDS011;4594;50.994;7.126;2022-08-19T08:15:00;10.33;;;7.73;;
9117;SDS011;4594;50.994;7.126;2022-08-19T08:17:32;9.77;;;7.93;;
9117;SDS011;4594;50.994;7.126;2022-08-19T08:19:58;17.03;;;8.20;;
9117;SDS011;4594;50.994;7.126;2022-08-19T08:22:24;15.03;;;8.20;;
9117;SDS011;4594;50.994;7.126;2022-08-19T08:25:10;11.27;;;8.37;;
9117;SDS011;4594;50.994;7.126;2022-08-19T08:27:44;12.50;;;7.87;;
9117;SDS011;4594;50.994;7.126;2022-08-19T08:30:17;11.83;;;7.33;;
9117;SDS011;4594;50.994;7.126;2022-08-19T08:32:48;9.27;;;6.77;;
9117;SDS011;4594;50.994;7.126;2022-08-19T08:35:16;8.37;;;5.90;;
9117;SDS011;4594;50.994;7.126;2022-08-19T08:37:45;10.77;;;6.40;;
9117;SDS011;4594;50.994;7.126;2022-08-19T08:43:09;9.47;;;7.27;;
9117;SDS011;4594;50.994;7.126;2022-08-19T08:46:13;8.97;;;5.87;;
9117;SDS011;4594;50.994;7.126;2022-08-19T08:51:52;7.00;;;6.30;;
9117;SDS011;4594;50.994;7.126;2022-08-19T08:54:40;10.13;;;6.93;;
9117;SDS011;4594;50.994;7.126;2022-08-19T08:57:12;8.57;;;6.00;;
9117;SDS011;4594;50.994;7.126;2022-08-19T08:59:47;10.90;;;6.30;;
9117;SDS011;4594;50.994;7.126;2022-08-19T09:02:17;9.93;;;6.87;;
9117;SDS011;4594;50.994;7.126;2022-08-19T09:04:43;7.47;;;6.33;;
9117;SDS011;4594;50.994;7.126;2022-08-19T09:07:13;7.77;;;6.57;;
9117;SDS011;4594;50.994;7.126;2022-08-19T09:10:20;6.97;;;6.20;;
9117;SDS011;4594;50.994;7.126;2022-08-19T09:13:04;8.07;;;6.27;;
9117;SDS011;4594;50.994;7.126;2022-08-19T09:16:06;13.07;;;6.57;;
9117;SDS011;4594;50.994;7.126;2022-08-19T09:21:22;11.87;;;7.67;;
9117;SDS011;4594;50.994;7.126;2022-08-19T09:23:50;8.70;;;6.00;;
9117;SDS011;4594;50.994;7.126;2022-08-19T09:26:18;9.40;;;7.10;;
9117;SDS011;4594;50.994;7.126;2022-08-19T09:28:47;10.90;;;7.23;;
9117;SDS011;4594;50.994;7.126;2022-08-19T09:31:18;6.60;;;5.83;;
9117;SDS011;4594;50.994;7.126;2022-08-19T09:33:47;7.33;;;6.63;;
9117;SDS011;4594;50.994;7.126;2022-08-19T09:36:14;7.43;;;6.30;;
9117;SDS011;4594;50.994;7.126;2022-08-19T09:38:43;11.67;;;6.70;;
9117;SDS011;4594;50.994;7.126;2022-08-19T09:41:14;7.27;;;6.47;;
9117;SDS011;4594;50.994;7.126;2022-08-19T09:43:44;8.27;;;6.20;;
9117;SDS011;4594;50.994;7.126;2022-08-19T09:46:17;7.53;;;6.10;;
9117;SDS011;4594;50.994;7.126;2022-08-19T09:48:48;8.35;;;6.50;;
9117;SDS011;4594;50.994;7.126;2022-08-19T09:51:17;10.23;;;7.30;;
9117;SDS011;4594;50.994;7.126;2022-08-19T09:53:49;9.02;;;7.15;;
9117;SDS011;4594;50.994;7.126;2022-08-19T09:56:19;9.18;;;6.30;;
9117;SDS011;4594;50.994;7.126;2022-08-19T09:58:46;14.68;;;9.60;;
9117;SDS011;4594;50.994;7.126;2022-08-19T10:01:21;10.50;;;6.40;;
9117;SDS011;4594;50.994;7.126;2022-08-19T10:03:51;10.95;;;7.50;;
9117;SDS011;4594;50.994;7.126;2022-08-19T10:06:20;11.10;;;8.13;;
9117;SDS011;4594;50.994;7.126;2022-08-19T10:08:48;7.50;;;6.63;;
9117;SDS011;4594;50.994;7.126;2022-08-19T10:11:16;20.17;;;11.60;;
9117;SDS011;4594;50.994;7.126;2022-08-19T10:13:44;11.60;;;7.20;;
9117;SDS011;4594;50.994;7.126;2022-08-19T10:16:12;9.10;;;7.20;;
9117;SDS011;4594;50.994;7.126;2022-08-19T10:18:49;10.63;;;7.83;;
9117;SDS011;4594;50.994;7.126;2022-08-19T10:21:17;12.17;;;7.57;;
9117;SDS011;4594;50.994;7.126;2022-08-19T10:23:47;10.00;;;8.27;;
9117;SDS011;4594;50.994;7.126;2022-08-19T10:26:19;11.20;;;7.77;;
9117;SDS011;4594;50.994;7.126;2022-08-19T10:28:54;8.00;;;7.20;;
9117;SDS011;4594;50.994;7.126;2022-08-19T10:31:22;10.07;;;7.13;;
9117;SDS011;4594;50.994;7.126;2022-08-19T10:33:51;8.20;;;6.43;;
9117;SDS011;4594;50.994;7.126;2022-08-19T10:36:25;8.33;;;5.87;;
9117;SDS011;4594;50.994;7.126;2022-08-19T10:38:57;5.63;;;4.93;;
9117;SDS011;4594;50.994;7.126;2022-08-19T10:41:28;5.97;;;5.25;;
9117;SDS011;4594;50.994;7.126;2022-08-19T10:43:59;7.07;;;5.82;;
9117;SDS011;4594;50.994;7.126;2022-08-19T10:46:29;6.07;;;5.05;;
9117;SDS011;4594;50.994;7.126;2022-08-19T10:48:57;6.38;;;5.47;;
9117;SDS011;4594;50.994;7.126;2022-08-19T10:51:25;6.28;;;5.35;;
9117;SDS011;4594;50.994;7.126;2022-08-19T10:54:09;9.82;;;4.95;;
9117;SDS011;4594;50.994;7.126;2022-08-19T10:56:35;10.80;;;5.60;;
9117;SDS011;4594;50.994;7.126;2022-08-19T11:01:49;13.60;;;5.15;;
9117;SDS011;4594;50.994;7.126;2022-08-19T11:04:17;3.95;;;3.65;;
9117;SDS011;4594;50.994;7.126;2022-08-19T11:06:44;4.77;;;4.30;;
9117;SDS011;4594;50.994;7.126;2022-08-19T11:09:13;4.47;;;4.00;;
9117;SDS011;4594;50.994;7.126;2022-08-19T11:11:45;4.75;;;4.38;;
9117;SDS011;4594;50.994;7.126;2022-08-19T11:14:15;5.22;;;4.80;;
9117;SDS011;4594;50.994;7.126;2022-08-19T11:16:46;4.32;;;3.97;;
9117;SDS011;4594;50.994;7.126;2022-08-19T11:19:14;4.70;;;4.13;;
9117;SDS011;4594;50.994;7.126;2022-08-19T11:21:44;4.75;;;4.32;;
9117;SDS011;4594;50.994;7.126;2022-08-19T11:24:17;6.63;;;4.57;;
9117;SDS011;4594;50.994;7.126;2022-08-19T11:26:48;4.60;;;4.30;;
9117;SDS011;4594;50.994;7.126;2022-08-19T11:29:16;7.30;;;4.40;;
9117;SDS011;4594;50.994;7.126;2022-08-19T11:31:50;4.60;;;4.20;;
9117;SDS011;4594;50.994;7.126;2022-08-19T11:34:21;4.90;;;4.40;;
9117;SDS011;4594;50.994;7.126;2022-08-19T11:36:50;4.50;;;4.10;;
9117;SDS011;4594;50.994;7.126;2022-08-19T11:39:17;5.67;;;4.50;;
9117;SDS011;4594;50.994;7.126;2022-08-19T11:41:46;5.97;;;4.37;;
9117;SDS011;4594;50.994;7.126;2022-08-19T11:44:12;3.53;;;3.23;;
9117;SDS011;4594;50.994;7.126;2022-08-19T11:46:39;4.57;;;4.17;;
9117;SDS011;4594;50.994;7.126;2022-08-19T11:49:10;6.90;;;4.33;;
9117;SDS011;4594;50.994;7.126;2022-08-19T11:51:36;6.30;;;4.10;;
9117;SDS011;4594;50.994;7.126;2022-08-19T11:54:04;9.40;;;5.03;;
9117;SDS011;4594;50.994;7.126;2022-08-19T11:56:31;4.20;;;3.90;;
9117;SDS011;4594;50.994;7.126;2022-08-19T11:58:57;6.17;;;4.30;;
9117;SDS011;4594;50.994;7.126;2022-08-19T12:01:24;9.20;;;4.23;;
9117;SDS011;4594;50.994;7.126;2022-08-19T12:03:51;4.80;;;4.40;;
9117;SDS011;4594;50.994;7.126;2022-08-19T12:06:26;7.77;;;5.33;;
9117;SDS011;4594;50.994;7.126;2022-08-19T12:08:56;5.00;;;4.50;;
9117;SDS011;4594;50.994;7.126;2022-08-19T12:11:29;4.80;;;4.37;;
9117;SDS011;4594;50.994;7.126;2022-08-19T12:13:55;4.57;;;4.17;;
9117;SDS011;4594;50.994;7.126;2022-08-19T12:16:23;4.30;;;3.90;;
9117;SDS011;4594;50.994;7.126;2022-08-19T12:18:52;3.80;;;3.50;;
9117;SDS011;4594;50.994;7.126;2022-08-19T12:21:20;4.23;;;3.60;;
9117;SDS011;4594;50.994;7.126;2022-08-19T12:23:52;3.70;;;3.50;;
9117;SDS011;4594;50.994;7.126;2022-08-19T12:26:19;4.30;;;3.93;;
9117;SDS011;4594;50.994;7.126;2022-08-19T12:28:46;4.23;;;3.87;;
9117;SDS011;4594;50.994;7.126;2022-08-19T12:31:13;3.83;;;3.57;;
9117;SDS011;4594;50.994;7.126;2022-08-19T12:33:40;3.93;;;3.57;;
9117;SDS011;4594;50.994;7.126;2022-08-19T12:36:08;5.87;;;3.37;;
9117;SDS011;4594;50.994;7.126;2022-08-19T12:38:37;6.07;;;3.90;;
9117;SDS011;4594;50.994;7.126;2022-08-19T12:41:04;5.17;;;3.50;;
9117;SDS011;4594;50.994;7.126;2022-08-19T12:43:33;4.83;;;3.80;;
9117;SDS011;4594;50.994;7.126;2022-08-19T12:46:03;4.00;;;3.60;;
9117;SDS011;4594;50.994;7.126;2022-08-19T12:48:34;4.23;;;3.87;;
9117;SDS011;4594;50.994;7.126;2022-08-19T12:51:00;3.97;;;3.67;;
9117;SDS011;4594;50.994;7.126;2022-08-19T12:53:33;4.17;;;3.90;;
9117;SDS011;4594;50.994;7.126;2022-08-19T12:55:59;5.10;;;4.07;;
9117;SDS011;4594;50.994;7.126;2022-08-19T12:58:25;4.03;;;3.60;;
9117;SDS011;4594;50.994;7.126;2022-08-19T13:00:53;5.30;;;3.27;;
9117;SDS011;4594;50.994;7.126;2022-08-19T13:03:19;6.50;;;3.53;;
9117;SDS011;4594;50.994;7.126;2022-08-19T13:05:47;3.20;;;3.00;;
9117;SDS011;4594;50.994;7.126;2022-08-19T13:08:15;3.63;;;3.43;;
9117;SDS011;4594;50.994;7.126;2022-08-19T13:10:41;5.80;;;3.43;;
9117;SDS011;4594;50.994;7.126;2022-08-19T13:13:08;3.57;;;3.27;;
9117;SDS011;4594;50.994;7.126;2022-08-19T13:15:38;5.20;;;3.30;;
9117;SDS011;4594;50.994;7.126;2022-08-19T13:18:07;3.90;;;3.70;;
9117;SDS011;4594;50.994;7.126;2022-08-19T13:20:35;5.47;;;3.03;;
9117;SDS011;4594;50.994;7.126;2022-08-19T13:23:03;4.23;;;3.90;;
9117;SDS011;4594;50.994;7.126;2022-08-19T13:25:29;4.90;;;3.70;;
9117;SDS011;4594;50.994;7.126;2022-08-19T13:27:56;3.97;;;3.50;;
9117;SDS011;4594;50.994;7.126;2022-08-19T13:30:22;4.50;;;3.70;;
9117;SDS011;4594;50.994;7.126;2022-08-19T13:33:07;3.63;;;3.33;;
9117;SDS011;4594;50.994;7.126;2022-08-19T13:35:41;3.80;;;3.40;;
9117;SDS011;4594;50.994;7.126;2022-08-19T13:38:10;5.47;;;3.60;;
9117;SDS011;4594;50.994;7.126;2022-08-19T13:40:37;5.10;;;4.00;;
9117;SDS011;4594;50.994;7.126;2022-08-19T13:43:04;4.20;;;3.90;;
9117;SDS011;4594;50.994;7.126;2022-08-19T13:45:32;3.73;;;3.43;;
9117;SDS011;4594;50.994;7.126;2022-08-19T13:47:59;5.80;;;3.20;;
9117;SDS011;4594;50.994;7.126;2022-08-19T13:50:31;4.23;;;3.50;;
9117;SDS011;4594;50.994;7.126;2022-08-19T13:52:59;3.57;;;3.30;;
9117;SDS011;4594;50.994;7.126;2022-08-19T13:55:26;6.33;;;4.03;;
9117;SDS011;4594;50.994;7.126;2022-08-19T13:57:52;5.00;;;3.40;;
9117;SDS011;4594;50.994;7.126;2022-08-19T14:00:22;3.47;;;3.20;;
9117;SDS011;4594;50.994;7.126;2022-08-19T14:02:52;3.80;;;3.50;;
9117;SDS011;4594;50.994;7.126;2022-08-19T14:05:20;3.87;;;3.40;;
9117;SDS011;4594;50.994;7.126;2022-08-19T14:07:47;5.63;;;4.13;;
9117;SDS011;4594;50.994;7.126;2022-08-19T14:10:13;5.00;;;3.57;;
9117;SDS011;4594;50.994;7.126;2022-08-19T14:12:40;3.57;;;3.37;;
9117;SDS011;4594;50.994;7.126;2022-08-19T14:15:06;3.83;;;3.53;;
9117;SDS011;4594;50.994;7.126;2022-08-19T14:17:36;4.10;;;3.50;;
9117;SDS011;4594;50.994;7.126;2022-08-19T14:20:09;6.13;;;3.53;;
9117;SDS011;4594;50.994;7.126;2022-08-19T14:22:40;3.90;;;3.57;;
9117;SDS011;4594;50.994;7.126;2022-08-19T14:25:08;4.17;;;3.87;;
9117;SDS011;4594;50.994;7.126;2022-08-19T14:27:41;11.43;;;3.30;;
9117;SDS011;4594;50.994;7.126;2022-08-19T14:30:08;3.77;;;3.33;;
9117;SDS011;4594;50.994;7.126;2022-08-19T14:32:36;3.60;;;3.30;;
9117;SDS011;4594;50.994;7.126;2022-08-19T14:35:03;3.10;;;2.90;;
9117;SDS011;4594;50.994;7.126;2022-08-19T14:37:32;4.67;;;3.17;;
9117;SDS011;4594;50.994;7.126;2022-08-19T14:39:59;3.77;;;2.83;;
9117;SDS011;4594;50.994;7.126;2022-08-19T14:42:25;4.87;;;2.93;;
9117;SDS011;4594;50.994;7.126;2022-08-19T14:44:51;3.97;;;2.97;;
9117;SDS011;4594;50.994;7.126;2022-08-19T14:47:16;2.73;;;2.63;;
9117;SDS011;4594;50.994;7.126;2022-08-19T14:49:42;4.50;;;2.83;;
9117;SDS011;4594;50.994;7.126;2022-08-19T14:52:08;7.43;;;3.03;;
9117;SDS011;4594;50.994;7.126;2022-08-19T14:54:34;2.97;;;2.77;;
9117;SDS011;4594;50.994;7.126;2022-08-19T14:57:00;3.40;;;3.10;;
9117;SDS011;4594;50.994;7.126;2022-08-19T14:59:26;6.33;;;3.30;;
9117;SDS011;4594;50.994;7.126;2022-08-19T15:01:51;3.57;;;3.27;;
9117;SDS011;4594;50.994;7.126;2022-08-19T15:04:17;5.33;;;3.37;;
9117;SDS011;4594;50.994;7.126;2022-08-19T15:06:43;3.13;;;2.93;;
9117;SDS011;4594;50.994;7.126;2022-08-19T15:09:09;4.30;;;3.00;;
9117;SDS011;4594;50.994;7.126;2022-08-19T15:11:36;5.37;;;2.90;;
9117;SDS011;4594;50.994;7.126;2022-08-19T15:14:03;2.83;;;2.63;;
9117;SDS011;4594;50.994;7.126;2022-08-19T15:16:30;3.10;;;2.90;;
9117;SDS011;4594;50.994;7.126;2022-08-19T15:18:57;6.30;;;3.00;;
9117;SDS011;4594;50.994;7.126;2022-08-19T15:21:24;2.80;;;2.60;;
9117;SDS011;4594;50.994;7.126;2022-08-19T15:23:52;2.67;;;2.50;;
9117;SDS011;4594;50.994;7.126;2022-08-19T15:26:21;2.47;;;2.37;;
9117;SDS011;4594;50.994;7.126;2022-08-19T15:28:47;3.07;;;2.47;;
9117;SDS011;4594;50.994;7.126;2022-08-19T15:31:19;2.93;;;2.67;;
9117;SDS011;4594;50.994;7.126;2022-08-19T15:33:47;2.37;;;2.23;;
9117;SDS011;4594;50.994;7.126;2022-08-19T15:36:13;2.87;;;2.47;;
9117;SDS011;4594;50.994;7.126;2022-08-19T15:38:40;5.73;;;2.70;;
9117;SDS011;4594;50.994;7.126;2022-08-19T15:41:15;2.60;;;2.50;;
9117;SDS011;4594;50.994;7.126;2022-08-19T15:43:49;2.30;;;2.20;;